sensor_id;sensor_type;location;lat;lon;timestamp;temperature;humidity
12504;DHT22;6316;48.118;-1.690;2024-02-14T00:01:34;13.60;99.90
12504;DHT22;6316;48.118;-1.690;2024-02-14T00:04:02;13.60;99.90
12504;DHT22;6316;48.118;-1.690;2024-02-14T00:06:28;13.60;99.90
12504;DHT22;6316;48.118;-1.690;2024-02-14T00:08:54;13.60;99.90
12504;DHT22;6316;48.118;-1.690;2024-02-14T00:11:19;13.60;99.90
12504;DHT22;6316;48.118;-1.690;2024-02-14T00:13:45;13.60;99.90
12504;DHT22;6316;48.118;-1.690;2024-02-14T00:16:10;13.60;99.90
12504;DHT22;6316;48.118;-1.690;2024-02-14T00:18:36;13.60;99.90
12504;DHT22;6316;48.118;-1.690;2024-02-14T00:21:01;13.60;99.90
12504;DHT22;6316;48.118;-1.690;2024-02-14T00:23:27;13.60;99.90
12504;DHT22;6316;48.118;-1.690;2024-02-14T00:25:53;13.60;99.90
12504;DHT22;6316;48.118;-1.690;2024-02-14T00:28:18;13.60;99.90
12504;DHT22;6316;48.118;-1.690;2024-02-14T00:30:44;13.60;99.90
12504;DHT22;6316;48.118;-1.690;2024-02-14T00:33:10;13.60;99.90
12504;DHT22;6316;48.118;-1.690;2024-02-14T00:35:36;13.60;99.90
12504;DHT22;6316;48.118;-1.690;2024-02-14T00:38:01;13.60;99.90
12504;DHT22;6316;48.118;-1.690;2024-02-14T00:40:27;13.60;99.90
12504;DHT22;6316;48.118;-1.690;2024-02-14T00:42:52;13.50;99.90
12504;DHT22;6316;48.118;-1.690;2024-02-14T00:45:18;13.50;99.90
12504;DHT22;6316;48.118;-1.690;2024-02-14T00:47:44;13.50;99.90
12504;DHT22;6316;48.118;-1.690;2024-02-14T00:50:09;13.60;99.90
12504;DHT22;6316;48.118;-1.690;2024-02-14T00:52:35;13.60;99.90
12504;DHT22;6316;48.118;-1.690;2024-02-14T00:55:01;13.60;99.90
12504;DHT22;6316;48.118;-1.690;2024-02-14T00:57:29;13.60;99.90
12504;DHT22;6316;48.118;-1.690;2024-02-14T00:59:54;13.60;99.90
12504;DHT22;6316;48.118;-1.690;2024-02-14T01:02:22;13.60;99.90
12504;DHT22;6316;48.118;-1.690;2024-02-14T01:04:47;13.60;99.90
12504;DHT22;6316;48.118;-1.690;2024-02-14T01:07:13;13.50;99.90
12504;DHT22;6316;48.118;-1.690;2024-02-14T01:09:38;13.60;99.90
12504;DHT22;6316;48.118;-1.690;2024-02-14T01:12:04;13.50;99.90
12504;DHT22;6316;48.118;-1.690;2024-02-14T01:14:31;13.60;99.90
12504;DHT22;6316;48.118;-1.690;2024-02-14T01:16:56;13.60;99.90
12504;DHT22;6316;48.118;-1.690;2024-02-14T01:19:22;13.60;99.90
12504;DHT22;6316;48.118;-1.690;2024-02-14T01:21:49;13.50;99.90
12504;DHT22;6316;48.118;-1.690;2024-02-14T01:24:15;13.50;99.90
12504;DHT22;6316;48.118;-1.690;2024-02-14T01:26:41;13.60;99.90
12504;DHT22;6316;48.118;-1.690;2024-02-14T01:29:07;13.50;99.90
12504;DHT22;6316;48.118;-1.690;2024-02-14T01:31:33;13.50;99.90
12504;DHT22;6316;48.118;-1.690;2024-02-14T01:34:00;13.60;99.90
12504;DHT22;6316;48.118;-1.690;2024-02-14T01:36:30;13.60;99.90
12504;DHT22;6316;48.118;-1.690;2024-02-14T01:38:56;13.60;99.90
12504;DHT22;6316;48.118;-1.690;2024-02-14T01:41:21;13.60;99.90
12504;DHT22;6316;48.118;-1.690;2024-02-14T01:43:49;13.60;99.90
12504;DHT22;6316;48.118;-1.690;2024-02-14T01:46:15;13.70;99.90
12504;DHT22;6316;48.118;-1.690;2024-02-14T01:48:41;13.60;99.90
12504;DHT22;6316;48.118;-1.690;2024-02-14T01:51:08;13.70;99.90
12504;DHT22;6316;48.118;-1.690;2024-02-14T01:53:39;13.70;99.90
12504;DHT22;6316;48.118;-1.690;2024-02-14T01:56:05;13.80;99.90
12504;DHT22;6316;48.118;-1.690;2024-02-14T01:58:32;13.70;99.90
12504;DHT22;6316;48.118;-1.690;2024-02-14T02:00:59;13.70;99.90
12504;DHT22;6316;48.118;-1.690;2024-02-14T02:03:26;13.70;99.90
12504;DHT22;6316;48.118;-1.690;2024-02-14T02:05:52;13.70;99.90
12504;DHT22;6316;48.118;-1.690;2024-02-14T02:08:19;13.70;99.90
12504;DHT22;6316;48.118;-1.690;2024-02-14T02:10:45;13.70;99.90
12504;DHT22;6316;48.118;-1.690;2024-02-14T02:13:10;13.70;99.90
12504;DHT22;6316;48.118;-1.690;2024-02-14T02:15:36;13.80;99.90
12504;DHT22;6316;48.118;-1.690;2024-02-14T02:18:04;13.80;99.90
12504;DHT22;6316;48.118;-1.690;2024-02-14T02:20:31;13.80;99.90
12504;DHT22;6316;48.118;-1.690;2024-02-14T02:22:58;13.80;99.90
12504;DHT22;6316;48.118;-1.690;2024-02-14T02:25:25;13.80;99.90
12504;DHT22;6316;48.118;-1.690;2024-02-14T02:27:52;13.80;99.90
12504;DHT22;6316;48.118;-1.690;2024-02-14T02:30:19;13.80;99.90
12504;DHT22;6316;48.118;-1.690;2024-02-14T02:32:44;13.80;99.90
12504;DHT22;6316;48.118;-1.690;2024-02-14T02:35:10;13.90;99.90
12504;DHT22;6316;48.118;-1.690;2024-02-14T02:37:35;13.80;99.90
12504;DHT22;6316;48.118;-1.690;2024-02-14T02:40:01;13.80;99.90
12504;DHT22;6316;48.118;-1.690;2024-02-14T02:42:27;13.80;99.90
12504;DHT22;6316;48.118;-1.690;2024-02-14T02:44:54;13.80;99.90
12504;DHT22;6316;48.118;-1.690;2024-02-14T02:47:20;13.90;99.90
12504;DHT22;6316;48.118;-1.690;2024-02-14T02:49:46;13.80;99.90
12504;DHT22;6316;48.118;-1.690;2024-02-14T02:52:12;13.90;99.90
12504;DHT22;6316;48.118;-1.690;2024-02-14T02:54:38;13.80;99.90
12504;DHT22;6316;48.118;-1.690;2024-02-14T02:57:11;13.90;99.90
12504;DHT22;6316;48.118;-1.690;2024-02-14T02:59:37;13.90;99.90
12504;DHT22;6316;48.118;-1.690;2024-02-14T03:02:04;13.90;99.90
12504;DHT22;6316;48.118;-1.690;2024-02-14T03:04:33;13.90;99.90
12504;DHT22;6316;48.118;-1.690;2024-02-14T03:06:59;13.90;99.90
12504;DHT22;6316;48.118;-1.690;2024-02-14T03:09:25;13.90;99.90
12504;DHT22;6316;48.118;-1.690;2024-02-14T03:11:51;13.90;99.90
12504;DHT22;6316;48.118;-1.690;2024-02-14T03:14:17;13.90;99.90
12504;DHT22;6316;48.118;-1.690;2024-02-14T03:16:43;13.90;99.90
12504;DHT22;6316;48.118;-1.690;2024-02-14T03:19:08;13.90;99.90
12504;DHT22;6316;48.118;-1.690;2024-02-14T03:21:34;13.90;99.90
12504;DHT22;6316;48.118;-1.690;2024-02-14T03:24:01;13.90;99.90
12504;DHT22;6316;48.118;-1.690;2024-02-14T03:26:30;14.00;99.90
12504;DHT22;6316;48.118;-1.690;2024-02-14T03:29:02;13.90;99.90
12504;DHT22;6316;48.118;-1.690;2024-02-14T03:31:31;13.90;99.90
12504;DHT22;6316;48.118;-1.690;2024-02-14T03:33:57;13.90;99.90
12504;DHT22;6316;48.118;-1.690;2024-02-14T03:36:23;13.90;99.90
12504;DHT22;6316;48.118;-1.690;2024-02-14T03:38:52;13.90;99.90
12504;DHT22;6316;48.118;-1.690;2024-02-14T03:41:18;13.90;99.90
12504;DHT22;6316;48.118;-1.690;2024-02-14T03:43:43;13.90;99.90
12504;DHT22;6316;48.118;-1.690;2024-02-14T03:46:09;13.90;99.90
12504;DHT22;6316;48.118;-1.690;2024-02-14T03:48:34;13.90;99.90
12504;DHT22;6316;48.118;-1.690;2024-02-14T03:51:01;13.90;99.90
12504;DHT22;6316;48.118;-1.690;2024-02-14T03:53:28;13.90;99.90
12504;DHT22;6316;48.118;-1.690;2024-02-14T03:55:54;13.90;99.90
12504;DHT22;6316;48.118;-1.690;2024-02-14T03:58:19;13.90;99.90
12504;DHT22;6316;48.118;-1.690;2024-02-14T04:00:51;13.70;99.90
12504;DHT22;6316;48.118;-1.690;2024-02-14T04:03:18;13.80;99.90
12504;DHT22;6316;48.118;-1.690;2024-02-14T04:05:44;13.80;99.90
12504;DHT22;6316;48.118;-1.690;2024-02-14T04:08:10;13.80;99.90
12504;DHT22;6316;48.118;-1.690;2024-02-14T04:10:37;13.80;99.90
12504;DHT22;6316;48.118;-1.690;2024-02-14T04:13:06;13.80;99.90
12504;DHT22;6316;48.118;-1.690;2024-02-14T04:15:32;13.80;99.90
12504;DHT22;6316;48.118;-1.690;2024-02-14T04:17:58;13.80;99.90
12504;DHT22;6316;48.118;-1.690;2024-02-14T04:20:25;13.80;99.90
12504;DHT22;6316;48.118;-1.690;2024-02-14T04:22:50;13.80;99.90
12504;DHT22;6316;48.118;-1.690;2024-02-14T04:25:16;13.80;99.90
12504;DHT22;6316;48.118;-1.690;2024-02-14T04:27:42;13.80;99.90
12504;DHT22;6316;48.118;-1.690;2024-02-14T04:30:08;13.80;99.90
12504;DHT22;6316;48.118;-1.690;2024-02-14T04:32:34;13.80;99.90
12504;DHT22;6316;48.118;-1.690;2024-02-14T04:34:59;13.70;99.90
12504;DHT22;6316;48.118;-1.690;2024-02-14T04:37:25;13.70;99.90
12504;DHT22;6316;48.118;-1.690;2024-02-14T04:39:50;13.80;99.90
12504;DHT22;6316;48.118;-1.690;2024-02-14T04:42:16;13.70;99.90
12504;DHT22;6316;48.118;-1.690;2024-02-14T04:44:42;13.70;99.90
12504;DHT22;6316;48.118;-1.690;2024-02-14T04:47:07;13.80;99.90
12504;DHT22;6316;48.118;-1.690;2024-02-14T04:49:35;13.80;99.90
12504;DHT22;6316;48.118;-1.690;2024-02-14T04:52:01;13.80;99.90
12504;DHT22;6316;48.118;-1.690;2024-02-14T04:54:26;13.60;99.90
12504;DHT22;6316;48.118;-1.690;2024-02-14T04:56:54;13.80;99.90
12504;DHT22;6316;48.118;-1.690;2024-02-14T04:59:19;13.80;99.90
12504;DHT22;6316;48.118;-1.690;2024-02-14T05:01:45;13.80;99.90
12504;DHT22;6316;48.118;-1.690;2024-02-14T05:04:12;13.80;99.90
12504;DHT22;6316;48.118;-1.690;2024-02-14T05:06:38;13.90;99.90
12504;DHT22;6316;48.118;-1.690;2024-02-14T05:09:05;13.90;99.90
12504;DHT22;6316;48.118;-1.690;2024-02-14T05:11:30;13.90;99.90
12504;DHT22;6316;48.118;-1.690;2024-02-14T05:13:56;13.80;99.90
12504;DHT22;6316;48.118;-1.690;2024-02-14T05:16:22;13.80;99.90
12504;DHT22;6316;48.118;-1.690;2024-02-14T05:18:48;13.80;99.90
12504;DHT22;6316;48.118;-1.690;2024-02-14T05:21:14;13.90;99.90
12504;DHT22;6316;48.118;-1.690;2024-02-14T05:23:40;13.80;99.90
12504;DHT22;6316;48.118;-1.690;2024-02-14T05:26:06;13.80;99.90
12504;DHT22;6316;48.118;-1.690;2024-02-14T05:28:32;13.90;99.90
12504;DHT22;6316;48.118;-1.690;2024-02-14T05:30:59;13.90;99.90
12504;DHT22;6316;48.118;-1.690;2024-02-14T05:33:25;13.90;99.90
12504;DHT22;6316;48.118;-1.690;2024-02-14T05:35:51;13.90;99.90
12504;DHT22;6316;48.118;-1.690;2024-02-14T05:38:18;13.90;99.90
12504;DHT22;6316;48.118;-1.690;2024-02-14T05:40:47;13.90;99.90
12504;DHT22;6316;48.118;-1.690;2024-02-14T05:43:13;13.90;99.90
12504;DHT22;6316;48.118;-1.690;2024-02-14T05:45:39;13.90;99.90
12504;DHT22;6316;48.118;-1.690;2024-02-14T05:48:04;13.90;99.90
12504;DHT22;6316;48.118;-1.690;2024-02-14T05:50:30;13.90;99.90
12504;DHT22;6316;48.118;-1.690;2024-02-14T05:52:56;13.90;99.90
12504;DHT22;6316;48.118;-1.690;2024-02-14T05:55:25;13.90;99.90
12504;DHT22;6316;48.118;-1.690;2024-02-14T05:57:51;14.00;99.90
12504;DHT22;6316;48.118;-1.690;2024-02-14T06:00:20;14.00;99.90
12504;DHT22;6316;48.118;-1.690;2024-02-14T06:02:49;14.00;99.90
12504;DHT22;6316;48.118;-1.690;2024-02-14T06:05:16;14.10;99.90
12504;DHT22;6316;48.118;-1.690;2024-02-14T06:07:42;13.90;99.90
12504;DHT22;6316;48.118;-1.690;2024-02-14T06:10:08;13.80;99.90
12504;DHT22;6316;48.118;-1.690;2024-02-14T06:12:34;13.90;99.90
12504;DHT22;6316;48.118;-1.690;2024-02-14T06:15:03;14.00;99.90
12504;DHT22;6316;48.118;-1.690;2024-02-14T06:17:29;14.00;99.90
12504;DHT22;6316;48.118;-1.690;2024-02-14T06:19:55;13.90;99.90
12504;DHT22;6316;48.118;-1.690;2024-02-14T06:22:22;13.90;99.90
12504;DHT22;6316;48.118;-1.690;2024-02-14T06:24:47;13.90;99.90
12504;DHT22;6316;48.118;-1.690;2024-02-14T06:27:16;13.90;99.90
12504;DHT22;6316;48.118;-1.690;2024-02-14T06:29:45;14.00;99.90
12504;DHT22;6316;48.118;-1.690;2024-02-14T06:32:14;13.90;99.90
12504;DHT22;6316;48.118;-1.690;2024-02-14T06:34:40;13.90;99.90
12504;DHT22;6316;48.118;-1.690;2024-02-14T06:37:05;14.00;99.90
12504;DHT22;6316;48.118;-1.690;2024-02-14T06:39:31;14.00;99.90
12504;DHT22;6316;48.118;-1.690;2024-02-14T06:41:56;14.00;99.90
12504;DHT22;6316;48.118;-1.690;2024-02-14T06:44:25;14.00;99.90
12504;DHT22;6316;48.118;-1.690;2024-02-14T06:46:51;14.00;99.90
12504;DHT22;6316;48.118;-1.690;2024-02-14T06:49:17;14.00;99.90
12504;DHT22;6316;48.118;-1.690;2024-02-14T06:51:43;14.00;99.90
12504;DHT22;6316;48.118;-1.690;2024-02-14T06:54:08;14.00;99.90
12504;DHT22;6316;48.118;-1.690;2024-02-14T06:56:35;14.00;99.90
12504;DHT22;6316;48.118;-1.690;2024-02-14T06:59:01;14.00;99.90
12504;DHT22;6316;48.118;-1.690;2024-02-14T07:01:28;14.00;99.90
12504;DHT22;6316;48.118;-1.690;2024-02-14T07:03:53;14.00;99.90
12504;DHT22;6316;48.118;-1.690;2024-02-14T07:06:19;14.00;99.90
12504;DHT22;6316;48.118;-1.690;2024-02-14T07:08:45;14.00;99.90
12504;DHT22;6316;48.118;-1.690;2024-02-14T07:11:11;14.00;99.90
12504;DHT22;6316;48.118;-1.690;2024-02-14T07:13:37;14.00;99.90
12504;DHT22;6316;48.118;-1.690;2024-02-14T07:16:02;14.00;99.90
12504;DHT22;6316;48.118;-1.690;2024-02-14T07:18:28;14.00;99.90
12504;DHT22;6316;48.118;-1.690;2024-02-14T07:20:53;14.00;99.90
12504;DHT22;6316;48.118;-1.690;2024-02-14T07:23:20;14.00;99.90
12504;DHT22;6316;48.118;-1.690;2024-02-14T07:25:46;14.00;99.90
12504;DHT22;6316;48.118;-1.690;2024-02-14T07:28:12;14.00;99.90
12504;DHT22;6316;48.118;-1.690;2024-02-14T07:30:37;14.00;99.90
12504;DHT22;6316;48.118;-1.690;2024-02-14T07:33:03;13.90;99.90
12504;DHT22;6316;48.118;-1.690;2024-02-14T07:35:29;14.00;99.90
12504;DHT22;6316;48.118;-1.690;2024-02-14T07:37:55;14.00;99.90
12504;DHT22;6316;48.118;-1.690;2024-02-14T07:40:21;14.00;99.90
12504;DHT22;6316;48.118;-1.690;2024-02-14T07:42:47;14.10;99.90
12504;DHT22;6316;48.118;-1.690;2024-02-14T07:45:13;14.00;99.90
12504;DHT22;6316;48.118;-1.690;2024-02-14T07:47:39;14.10;99.90
12504;DHT22;6316;48.118;-1.690;2024-02-14T07:50:06;14.10;99.90
12504;DHT22;6316;48.118;-1.690;2024-02-14T07:52:32;14.10;99.90
12504;DHT22;6316;48.118;-1.690;2024-02-14T07:54:58;14.10;99.90
12504;DHT22;6316;48.118;-1.690;2024-02-14T07:57:24;14.10;99.90
12504;DHT22;6316;48.118;-1.690;2024-02-14T07:59:53;14.10;99.90
12504;DHT22;6316;48.118;-1.690;2024-02-14T08:02:19;14.20;99.90
12504;DHT22;6316;48.118;-1.690;2024-02-14T08:04:45;14.20;99.90
12504;DHT22;6316;48.118;-1.690;2024-02-14T08:07:11;14.20;99.90
12504;DHT22;6316;48.118;-1.690;2024-02-14T08:09:36;14.20;99.90
12504;DHT22;6316;48.118;-1.690;2024-02-14T08:12:04;14.30;99.90
12504;DHT22;6316;48.118;-1.690;2024-02-14T08:14:30;14.30;99.90
12504;DHT22;6316;48.118;-1.690;2024-02-14T08:16:56;14.40;99.90
12504;DHT22;6316;48.118;-1.690;2024-02-14T08:19:21;14.40;99.90
12504;DHT22;6316;48.118;-1.690;2024-02-14T08:21:47;14.40;99.90
12504;DHT22;6316;48.118;-1.690;2024-02-14T08:24:12;14.40;99.90
12504;DHT22;6316;48.118;-1.690;2024-02-14T08:26:38;14.40;99.90
12504;DHT22;6316;48.118;-1.690;2024-02-14T08:29:03;14.50;99.90
12504;DHT22;6316;48.118;-1.690;2024-02-14T08:31:31;14.40;99.90
12504;DHT22;6316;48.118;-1.690;2024-02-14T08:33:57;14.40;99.90
12504;DHT22;6316;48.118;-1.690;2024-02-14T08:36:23;14.50;99.90
12504;DHT22;6316;48.118;-1.690;2024-02-14T08:38:49;14.50;99.90
12504;DHT22;6316;48.118;-1.690;2024-02-14T08:41:15;14.50;99.90
12504;DHT22;6316;48.118;-1.690;2024-02-14T08:43:40;14.50;99.90
12504;DHT22;6316;48.118;-1.690;2024-02-14T08:46:10;14.60;99.90
12504;DHT22;6316;48.118;-1.690;2024-02-14T08:48:37;14.60;99.90
12504;DHT22;6316;48.118;-1.690;2024-02-14T08:51:07;14.60;99.90
12504;DHT22;6316;48.118;-1.690;2024-02-14T08:53:35;14.70;99.90
12504;DHT22;6316;48.118;-1.690;2024-02-14T08:56:00;14.70;99.90
12504;DHT22;6316;48.118;-1.690;2024-02-14T08:58:26;14.70;99.90
12504;DHT22;6316;48.118;-1.690;2024-02-14T09:00:52;14.70;99.90
12504;DHT22;6316;48.118;-1.690;2024-02-14T09:03:19;14.70;99.90
12504;DHT22;6316;48.118;-1.690;2024-02-14T09:05:45;14.80;99.90
12504;DHT22;6316;48.118;-1.690;2024-02-14T09:08:12;14.80;99.90
12504;DHT22;6316;48.118;-1.690;2024-02-14T09:10:38;14.90;99.90
12504;DHT22;6316;48.118;-1.690;2024-02-14T09:13:04;14.90;99.90
12504;DHT22;6316;48.118;-1.690;2024-02-14T09:15:30;14.90;99.90
12504;DHT22;6316;48.118;-1.690;2024-02-14T09:17:56;15.00;99.90
12504;DHT22;6316;48.118;-1.690;2024-02-14T09:20:22;14.90;99.90
12504;DHT22;6316;48.118;-1.690;2024-02-14T09:22:48;14.90;99.90
12504;DHT22;6316;48.118;-1.690;2024-02-14T09:25:14;15.00;99.90
12504;DHT22;6316;48.118;-1.690;2024-02-14T09:27:39;15.10;99.90
12504;DHT22;6316;48.118;-1.690;2024-02-14T09:30:07;15.00;99.90
12504;DHT22;6316;48.118;-1.690;2024-02-14T09:32:33;15.00;99.90
12504;DHT22;6316;48.118;-1.690;2024-02-14T09:34:59;15.10;99.90
12504;DHT22;6316;48.118;-1.690;2024-02-14T09:37:25;15.10;99.90
12504;DHT22;6316;48.118;-1.690;2024-02-14T09:39:51;15.20;99.90
12504;DHT22;6316;48.118;-1.690;2024-02-14T09:42:23;15.20;99.90
12504;DHT22;6316;48.118;-1.690;2024-02-14T09:44:52;15.20;99.90
12504;DHT22;6316;48.118;-1.690;2024-02-14T09:47:24;15.20;99.90
12504;DHT22;6316;48.118;-1.690;2024-02-14T09:49:51;15.30;99.90
12504;DHT22;6316;48.118;-1.690;2024-02-14T09:52:18;15.30;99.90
12504;DHT22;6316;48.118;-1.690;2024-02-14T09:54:46;15.40;99.90
12504;DHT22;6316;48.118;-1.690;2024-02-14T09:57:13;15.40;99.90
12504;DHT22;6316;48.118;-1.690;2024-02-14T09:59:42;15.40;99.90
12504;DHT22;6316;48.118;-1.690;2024-02-14T10:02:08;15.50;99.90
12504;DHT22;6316;48.118;-1.690;2024-02-14T10:04:36;15.40;99.90
12504;DHT22;6316;48.118;-1.690;2024-02-14T10:07:03;15.50;99.90
12504;DHT22;6316;48.118;-1.690;2024-02-14T10:09:30;15.60;99.90
12504;DHT22;6316;48.118;-1.690;2024-02-14T10:11:56;15.60;99.90
12504;DHT22;6316;48.118;-1.690;2024-02-14T10:14:23;15.70;99.90
12504;DHT22;6316;48.118;-1.690;2024-02-14T10:16:49;15.70;99.90
12504;DHT22;6316;48.118;-1.690;2024-02-14T10:19:16;15.80;99.90
12504;DHT22;6316;48.118;-1.690;2024-02-14T10:21:41;15.80;99.90
12504;DHT22;6316;48.118;-1.690;2024-02-14T10:24:07;15.90;99.90
12504;DHT22;6316;48.118;-1.690;2024-02-14T10:26:34;15.90;99.90
12504;DHT22;6316;48.118;-1.690;2024-02-14T10:29:01;15.90;99.90
12504;DHT22;6316;48.118;-1.690;2024-02-14T10:31:27;15.90;99.90
12504;DHT22;6316;48.118;-1.690;2024-02-14T10:33:55;16.00;99.90
12504;DHT22;6316;48.118;-1.690;2024-02-14T10:36:21;16.10;99.90
12504;DHT22;6316;48.118;-1.690;2024-02-14T10:38:47;16.10;99.90
12504;DHT22;6316;48.118;-1.690;2024-02-14T10:41:16;16.10;99.90
12504;DHT22;6316;48.118;-1.690;2024-02-14T10:43:42;16.10;99.90
12504;DHT22;6316;48.118;-1.690;2024-02-14T10:46:20;16.10;99.90
12504;DHT22;6316;48.118;-1.690;2024-02-14T10:48:47;16.10;99.90
12504;DHT22;6316;48.118;-1.690;2024-02-14T10:51:15;16.10;99.90
12504;DHT22;6316;48.118;-1.690;2024-02-14T10:53:44;16.10;99.90
12504;DHT22;6316;48.118;-1.690;2024-02-14T10:56:13;16.10;99.90
12504;DHT22;6316;48.118;-1.690;2024-02-14T10:58:43;16.20;99.90
12504;DHT22;6316;48.118;-1.690;2024-02-14T11:01:11;16.20;99.90
12504;DHT22;6316;48.118;-1.690;2024-02-14T11:03:37;16.30;99.90
12504;DHT22;6316;48.118;-1.690;2024-02-14T11:06:03;16.30;99.90
12504;DHT22;6316;48.118;-1.690;2024-02-14T11:08:29;16.30;99.90
12504;DHT22;6316;48.118;-1.690;2024-02-14T11:10:59;16.40;99.90
12504;DHT22;6316;48.118;-1.690;2024-02-14T11:13:29;16.40;99.90
12504;DHT22;6316;48.118;-1.690;2024-02-14T11:16:01;16.40;99.90
12504;DHT22;6316;48.118;-1.690;2024-02-14T11:18:28;16.50;99.90
12504;DHT22;6316;48.118;-1.690;2024-02-14T11:20:59;16.60;99.90
12504;DHT22;6316;48.118;-1.690;2024-02-14T11:23:25;16.60;99.90
12504;DHT22;6316;48.118;-1.690;2024-02-14T11:26:05;16.60;99.90
12504;DHT22;6316;48.118;-1.690;2024-02-14T11:28:37;16.60;99.90
12504;DHT22;6316;48.118;-1.690;2024-02-14T11:31:02;16.60;99.90
12504;DHT22;6316;48.118;-1.690;2024-02-14T11:33:29;16.70;99.90
12504;DHT22;6316;48.118;-1.690;2024-02-14T11:35:55;16.80;99.90
12504;DHT22;6316;48.118;-1.690;2024-02-14T11:38:23;16.80;99.90
12504;DHT22;6316;48.118;-1.690;2024-02-14T11:40:53;16.90;99.90
12504;DHT22;6316;48.118;-1.690;2024-02-14T11:43:20;16.90;99.90
12504;DHT22;6316;48.118;-1.690;2024-02-14T11:45:46;16.90;99.90
12504;DHT22;6316;48.118;-1.690;2024-02-14T11:48:15;16.90;99.90
12504;DHT22;6316;48.118;-1.690;2024-02-14T11:50:43;16.80;99.90
12504;DHT22;6316;48.118;-1.690;2024-02-14T11:53:10;16.80;99.90
12504;DHT22;6316;48.118;-1.690;2024-02-14T11:55:40;16.80;99.90
12504;DHT22;6316;48.118;-1.690;2024-02-14T11:58:16;16.80;99.90
12504;DHT22;6316;48.118;-1.690;2024-02-14T12:00:43;16.80;99.90
12504;DHT22;6316;48.118;-1.690;2024-02-14T12:03:17;16.80;99.90
12504;DHT22;6316;48.118;-1.690;2024-02-14T12:05:44;16.90;99.90
12504;DHT22;6316;48.118;-1.690;2024-02-14T12:08:10;16.90;99.90
12504;DHT22;6316;48.118;-1.690;2024-02-14T12:10:36;17.00;99.90
12504;DHT22;6316;48.118;-1.690;2024-02-14T12:13:11;17.00;99.90
12504;DHT22;6316;48.118;-1.690;2024-02-14T12:15:41;17.10;99.90
12504;DHT22;6316;48.118;-1.690;2024-02-14T12:18:08;17.20;99.90
12504;DHT22;6316;48.118;-1.690;2024-02-14T12:20:41;17.20;99.90
12504;DHT22;6316;48.118;-1.690;2024-02-14T12:23:07;17.30;99.90
12504;DHT22;6316;48.118;-1.690;2024-02-14T12:25:33;17.30;99.90
12504;DHT22;6316;48.118;-1.690;2024-02-14T12:27:59;17.30;99.90
12504;DHT22;6316;48.118;-1.690;2024-02-14T12:30:46;17.30;99.90
12504;DHT22;6316;48.118;-1.690;2024-02-14T12:33:15;17.40;99.90
12504;DHT22;6316;48.118;-1.690;2024-02-14T12:35:45;17.40;99.90
12504;DHT22;6316;48.118;-1.690;2024-02-14T12:38:12;17.40;99.90
12504;DHT22;6316;48.118;-1.690;2024-02-14T12:40:39;17.50;99.90
12504;DHT22;6316;48.118;-1.690;2024-02-14T12:43:07;17.50;99.90
12504;DHT22;6316;48.118;-1.690;2024-02-14T12:45:34;17.50;99.90
12504;DHT22;6316;48.118;-1.690;2024-02-14T12:48:01;17.50;99.90
12504;DHT22;6316;48.118;-1.690;2024-02-14T12:50:27;17.50;99.90
12504;DHT22;6316;48.118;-1.690;2024-02-14T12:52:53;17.50;99.90
12504;DHT22;6316;48.118;-1.690;2024-02-14T12:55:18;17.60;99.90
12504;DHT22;6316;48.118;-1.690;2024-02-14T12:57:45;17.60;99.90
12504;DHT22;6316;48.118;-1.690;2024-02-14T13:00:13;17.70;99.90
12504;DHT22;6316;48.118;-1.690;2024-02-14T13:02:40;17.70;99.90
12504;DHT22;6316;48.118;-1.690;2024-02-14T13:05:06;17.70;99.90
12504;DHT22;6316;48.118;-1.690;2024-02-14T13:07:32;17.80;99.90
12504;DHT22;6316;48.118;-1.690;2024-02-14T13:09:58;17.80;99.90
12504;DHT22;6316;48.118;-1.690;2024-02-14T13:12:24;17.80;99.90
12504;DHT22;6316;48.118;-1.690;2024-02-14T13:14:49;17.80;99.90
12504;DHT22;6316;48.118;-1.690;2024-02-14T13:17:15;17.70;99.90
12504;DHT22;6316;48.118;-1.690;2024-02-14T13:19:40;17.70;99.90
12504;DHT22;6316;48.118;-1.690;2024-02-14T13:22:08;17.70;99.90
12504;DHT22;6316;48.118;-1.690;2024-02-14T13:24:34;17.70;99.90
12504;DHT22;6316;48.118;-1.690;2024-02-14T13:27:00;17.70;99.90
12504;DHT22;6316;48.118;-1.690;2024-02-14T13:29:25;17.70;99.90
12504;DHT22;6316;48.118;-1.690;2024-02-14T13:31:51;17.80;99.90
12504;DHT22;6316;48.118;-1.690;2024-02-14T13:34:17;17.80;99.90
12504;DHT22;6316;48.118;-1.690;2024-02-14T13:36:48;17.90;99.90
12504;DHT22;6316;48.118;-1.690;2024-02-14T13:39:14;18.00;99.90
12504;DHT22;6316;48.118;-1.690;2024-02-14T13:41:40;18.10;99.90
12504;DHT22;6316;48.118;-1.690;2024-02-14T13:44:09;18.10;99.90
12504;DHT22;6316;48.118;-1.690;2024-02-14T13:46:35;18.10;99.90
12504;DHT22;6316;48.118;-1.690;2024-02-14T13:49:01;18.00;99.90
12504;DHT22;6316;48.118;-1.690;2024-02-14T13:51:27;18.00;99.90
12504;DHT22;6316;48.118;-1.690;2024-02-14T13:53:53;17.90;99.90
12504;DHT22;6316;48.118;-1.690;2024-02-14T13:56:19;17.80;99.90
12504;DHT22;6316;48.118;-1.690;2024-02-14T13:58:47;17.80;99.90
12504;DHT22;6316;48.118;-1.690;2024-02-14T14:01:15;17.70;99.90
12504;DHT22;6316;48.118;-1.690;2024-02-14T14:03:40;17.70;99.90
12504;DHT22;6316;48.118;-1.690;2024-02-14T14:06:07;17.70;99.90
12504;DHT22;6316;48.118;-1.690;2024-02-14T14:08:34;17.70;99.90
12504;DHT22;6316;48.118;-1.690;2024-02-14T14:11:02;17.70;99.90
12504;DHT22;6316;48.118;-1.690;2024-02-14T14:13:28;17.70;99.90
12504;DHT22;6316;48.118;-1.690;2024-02-14T14:15:56;17.80;99.90
12504;DHT22;6316;48.118;-1.690;2024-02-14T14:18:22;17.80;99.90
12504;DHT22;6316;48.118;-1.690;2024-02-14T14:20:49;17.80;99.90
12504;DHT22;6316;48.118;-1.690;2024-02-14T14:23:14;17.80;99.90
12504;DHT22;6316;48.118;-1.690;2024-02-14T14:25:40;17.80;99.90
12504;DHT22;6316;48.118;-1.690;2024-02-14T14:28:06;17.80;99.90
12504;DHT22;6316;48.118;-1.690;2024-02-14T14:30:32;17.80;99.90
12504;DHT22;6316;48.118;-1.690;2024-02-14T14:32:58;17.80;99.90
12504;DHT22;6316;48.118;-1.690;2024-02-14T14:35:27;17.80;99.90
12504;DHT22;6316;48.118;-1.690;2024-02-14T14:37:52;17.70;99.90
12504;DHT22;6316;48.118;-1.690;2024-02-14T14:40:19;17.70;99.90
12504;DHT22;6316;48.118;-1.690;2024-02-14T14:42:47;17.70;99.90
12504;DHT22;6316;48.118;-1.690;2024-02-14T14:45:12;17.80;99.90
12504;DHT22;6316;48.118;-1.690;2024-02-14T14:47:38;17.80;99.90
12504;DHT22;6316;48.118;-1.690;2024-02-14T14:50:05;17.80;99.90
12504;DHT22;6316;48.118;-1.690;2024-02-14T14:52:32;17.80;99.90
12504;DHT22;6316;48.118;-1.690;2024-02-14T14:54:58;17.80;99.90
12504;DHT22;6316;48.118;-1.690;2024-02-14T14:57:24;17.80;99.90
12504;DHT22;6316;48.118;-1.690;2024-02-14T14:59:49;17.70;99.90
12504;DHT22;6316;48.118;-1.690;2024-02-14T15:02:16;17.70;99.90
12504;DHT22;6316;48.118;-1.690;2024-02-14T15:04:41;17.70;99.90
12504;DHT22;6316;48.118;-1.690;2024-02-14T15:07:09;17.70;99.90
12504;DHT22;6316;48.118;-1.690;2024-02-14T15:09:35;17.70;99.90
12504;DHT22;6316;48.118;-1.690;2024-02-14T15:12:01;17.70;99.90
12504;DHT22;6316;48.118;-1.690;2024-02-14T15:14:26;17.60;99.90
12504;DHT22;6316;48.118;-1.690;2024-02-14T15:16:52;17.60;99.90
12504;DHT22;6316;48.118;-1.690;2024-02-14T15:19:18;17.60;99.90
12504;DHT22;6316;48.118;-1.690;2024-02-14T15:21:43;17.60;99.90
12504;DHT22;6316;48.118;-1.690;2024-02-14T15:24:09;17.60;99.90
12504;DHT22;6316;48.118;-1.690;2024-02-14T15:26:35;17.60;99.90